Disclaimer

Please do not use the information listed here in-flight or in-navigation, as they are not provided to us by the airports but are provided by volunteers, so they might be outdated.

Search


Regions


Airport information page

Radio informations:
OPS - 122.5 MHz
Automatic Terminal Information Service (ATIS) - 127.85 MHz
PALEGRE APP - 119.0 MHz

Airport informations:
Latitude: 29° 56' 45.40" S
Longitude: 051° 08' 39.72" W
Elevation: 26 feet - 8 meters
Operating hours: N/A
Operating agency: Military
Timezone: UTC-3(-2DT)
Fuel: N/A

Runway information:
12/30 - 9025 x 145 feet< - >2751 x 44 meters

Recent METARs:
SBCO 210200Z 13004KT CAVOK 15/14 Q1016
SBCO 210200Z 13004KT CAVOK 15/14 Q1016
SBCO 210200Z 13004KT CAVOK 15/14 Q1016

Airport on the map: